Terminal Aerodrome Forecast
Issued by NWS

Home | Current Version | Previous Version | Text Only | Print | Product List | Glossary On
Versions: 1 2 3 4 5 6 7 8 9 10 11 12 13 14 15 16 17 18 19 20 21
981
FTUS44 KBMX 220612 AAA
TAFEET
TAF AMD
KEET 220612Z 2206/2306 10004KT P6SM -RA OVC005
     FM221600 07006KT P6SM VCSH OVC015
     FM222000 07006KT P6SM OVC025=

USA.gov is the U.S. government's official web portal to all federal, state and local government web resources and services.